Time;durP1;ratioP1;P1;durP2;ratioP2;P2;SDS_P1;SDS_P2;PMS_P1;PMS_P2;Temp;Humidity;BMP_temperature;BMP_pressure;BME280_temperature;BME280_humidity;BME280_pressure;Samples;Min_cycle;Max_cycle;Signal;HPM_P1;HPM_P2
2022/11/25 00:02:44;;;;;;;30.85;10.55;;;;;;;3.17;72.21;99064.09;5207499;28;20503;-72
2022/11/25 00:05:34;;;;;;;22.35;9.52;;;;;;;3.16;72.08;99085.16;5212265;28;20100;-72
2022/11/25 00:08:24;;;;;;;33.10;10.35;;;;;;;3.13;72.43;99078.31;5213207;28;20056;-71
2022/11/25 00:11:15;;;;;;;22.70;10.93;;;;;;;3.12;72.18;99065.34;5223031;28;20428;-71
2022/11/25 00:14:09;;;;;;;24.60;10.40;;;;;;;3.25;72.50;99061.00;5225327;28;20167;-71
2022/11/25 00:16:59;;;;;;;29.38;11.50;;;;;;;3.26;72.47;99062.69;5209061;28;20148;-72
2022/11/25 00:19:49;;;;;;;22.95;10.27;;;;;;;3.06;72.14;99037.72;5224560;28;20162;-72
2022/11/25 00:22:39;;;;;;;20.70;9.48;;;;;;;3.11;72.53;99050.53;5204285;28;20051;-71
2022/11/25 00:25:29;;;;;;;21.42;9.70;;;;;;;3.19;71.71;99075.31;5210332;28;20051;-71
2022/11/25 00:28:19;;;;;;;21.50;8.90;;;;;;;3.04;72.32;99050.06;5214268;28;20053;-70
2022/11/25 00:31:13;;;;;;;22.70;9.35;;;;;;;3.09;71.06;99068.97;5223710;28;20550;-71
2022/11/25 00:34:04;;;;;;;27.67;10.48;;;;;;;3.05;71.91;99057.84;5224782;28;20410;-70
2022/11/25 00:36:55;;;;;;;20.92;9.23;;;;;;;3.00;71.33;99066.91;5209074;28;20049;-71
2022/11/25 00:39:45;;;;;;;21.80;8.90;;;;;;;2.97;71.38;99074.97;5225404;28;20056;-71
2022/11/25 00:45:45;;;;;;;17.90;10.02;;;;;;;3.00;72.40;99070.38;5212824;28;20045;-71
2022/11/25 00:48:35;;;;;;;18.27;8.90;;;;;;;3.04;72.19;99068.41;5212851;28;20060;-72
2022/11/25 00:51:25;;;;;;;28.73;10.02;;;;;;;3.08;73.07;99048.97;5205123;28;20049;-71
2022/11/25 00:54:15;;;;;;;23.05;9.80;;;;;;;3.18;72.34;99057.06;5204834;28;20053;-71
2022/11/25 00:57:05;;;;;;;22.92;9.57;;;;;;;3.20;73.15;99063.91;5216566;28;20081;-71
2022/11/25 00:59:56;;;;;;;20.42;8.55;;;;;;;3.33;73.60;99048.25;5220783;28;20130;-71
2022/11/25 01:02:47;;;;;;;30.95;9.48;;;;;;;3.58;73.97;99072.94;5194421;28;20068;-71
2022/11/25 01:05:37;;;;;;;23.00;9.23;;;;;;;3.65;73.16;99072.44;5203216;28;20545;-72
2022/11/25 01:08:31;;;;;;;25.33;9.80;;;;;;;3.62;73.61;99072.63;5212605;28;20523;-72
2022/11/25 01:11:22;;;;;;;25.10;9.77;;;;;;;3.70;73.54;99072.97;5217682;28;20049;-71
2022/11/25 01:14:12;;;;;;;22.70;11.00;;;;;;;3.85;73.22;99068.53;5204451;28;20048;-72
2022/11/25 01:17:03;;;;;;;26.83;10.35;;;;;;;3.84;73.31;99056.34;5220133;28;20053;-70
2022/11/25 01:19:54;;;;;;;24.75;10.25;;;;;;;3.92;72.98;99082.06;5226275;28;20443;-70
2022/11/25 01:22:44;;;;;;;24.95;10.05;;;;;;;3.83;72.83;99085.28;5206723;28;20063;-71
2022/11/25 01:25:36;;;;;;;24.30;10.73;;;;;;;3.69;73.34;99057.34;5204501;28;20139;-71
2022/11/25 01:28:26;;;;;;;21.00;9.40;;;;;;;3.90;73.03;99066.41;5212142;28;20183;-71
2022/11/25 01:31:19;;;;;;;24.95;9.45;;;;;;;3.91;72.60;99064.66;5203341;28;20128;-71
2022/11/25 01:34:13;;;;;;;23.23;9.90;;;;;;;3.86;72.98;99064.09;5213874;28;20052;-71
2022/11/25 01:37:04;;;;;;;20.08;9.52;;;;;;;3.79;72.97;99065.44;5205928;28;20045;-71
2022/11/25 01:39:54;;;;;;;22.92;9.70;;;;;;;3.89;72.52;99072.63;5229064;28;20118;-71
2022/11/25 01:42:45;;;;;;;20.92;8.65;;;;;;;3.76;72.40;99062.06;5209725;28;20682;-72
2022/11/25 01:45:36;;;;;;;31.33;12.32;;;;;;;3.52;71.92;99056.63;5204426;28;20120;-71
2022/11/25 01:48:36;;;;;;;26.30;13.55;;;;;;;3.49;72.24;99072.56;5210215;28;20045;-71
2022/11/25 01:51:50;;;;;;;26.63;13.85;;;;;;;3.58;72.65;99076.38;5216782;28;20049;-71
2022/11/25 01:54:53;;;;;;;35.08;13.93;;;;;;;3.68;71.76;99082.72;5215890;28;20052;-71
2022/11/25 01:57:51;;;;;;;29.42;14.18;;;;;;;3.56;72.40;99067.75;5218324;28;20515;-71
2022/11/25 02:00:49;;;;;;;27.00;13.45;;;;;;;3.39;71.73;99066.22;5203031;28;20057;-71
2022/11/25 02:03:43;;;;;;;29.23;13.20;;;;;;;3.60;72.00;99071.88;5207860;28;20657;-71
2022/11/25 02:06:41;;;;;;;25.65;13.05;;;;;;;3.57;72.29;99074.69;5211549;28;20059;-71
2022/11/25 02:09:33;;;;;;;24.58;12.65;;;;;;;3.36;72.51;99058.53;5213880;28;20167;-72
2022/11/25 02:12:27;;;;;;;26.17;12.48;;;;;;;3.45;71.24;99075.47;5212695;28;20511;-72
2022/11/25 02:15:19;;;;;;;29.35;11.77;;;;;;;3.51;71.55;99093.44;5220508;28;20051;-71
2022/11/25 02:18:10;;;;;;;22.92;11.82;;;;;;;3.27;71.79;99073.06;5214274;28;20500;-72
2022/11/25 02:21:00;;;;;;;23.17;11.90;;;;;;;3.39;71.80;99078.47;5222427;28;20049;-72
2022/11/25 02:24:06;;;;;;;21.20;11.45;;;;;;;3.28;71.98;99074.75;5208910;28;20055;-71
2022/11/25 02:26:57;;;;;;;21.08;11.57;;;;;;;3.24;71.97;99094.22;5207400;28;20057;-72
2022/11/25 02:29:48;;;;;;;23.45;10.95;;;;;;;3.36;71.29;99086.53;5206113;28;20119;-70
2022/11/25 02:32:46;;;;;;;22.35;11.43;;;;;;;3.22;72.35;99071.69;5228436;28;20119;-72
2022/11/25 02:35:46;;;;;;;24.95;12.02;;;;;;;3.15;72.49;99076.47;5214396;28;20096;-70
2022/11/25 02:38:41;;;;;;;20.30;11.50;;;;;;;3.23;72.05;99082.06;5214425;28;20447;-72
2022/11/25 02:41:39;;;;;;;26.40;10.75;;;;;;;3.27;72.34;99083.53;5219751;28;20047;-72
2022/11/25 02:44:30;;;;;;;23.55;11.27;;;;;;;3.37;71.84;99090.84;5211518;28;20075;-71
2022/11/25 02:47:21;;;;;;;22.90;10.27;;;;;;;3.30;71.95;99083.34;5203100;28;20112;-71
2022/11/25 02:50:12;;;;;;;20.85;9.50;;;;;;;3.24;71.89;99081.09;5205567;28;20099;-71
2022/11/25 02:53:03;;;;;;;20.00;9.63;;;;;;;3.15;72.28;99088.72;5217136;28;20060;-71
2022/11/25 02:55:54;;;;;;;18.55;9.38;;;;;;;3.20;71.87;99091.88;5201535;28;20041;-73
2022/11/25 02:58:44;;;;;;;17.67;8.50;;;;;;;3.03;71.77;99040.53;5213802;28;20049;-73
2022/11/25 03:01:35;;;;;;;23.27;10.07;;;;;;;3.13;71.82;99057.38;5208006;28;20072;-72
2022/11/25 03:04:28;;;;;;;18.02;8.90;;;;;;;3.19;72.83;99070.09;5222347;28;20111;-72
2022/11/25 03:07:18;;;;;;;18.05;8.52;;;;;;;3.27;72.15;99062.56;5221767;28;20477;-71
2022/11/25 03:10:08;;;;;;;17.70;8.50;;;;;;;3.30;71.96;99057.13;5203173;28;20187;-71
2022/11/25 03:12:59;;;;;;;16.45;8.95;;;;;;;3.21;71.73;99055.13;5229611;28;20056;-71
2022/11/25 03:15:49;;;;;;;19.23;8.50;;;;;;;3.18;71.37;99059.69;5202312;28;20420;-72
2022/11/25 03:18:39;;;;;;;16.80;7.97;;;;;;;3.16;71.50;99058.97;5208483;28;20045;-72
2022/11/25 03:21:29;;;;;;;18.73;8.43;;;;;;;3.14;71.64;99039.84;5222084;28;20128;-72
2022/11/25 03:24:19;;;;;;;22.88;8.57;;;;;;;3.29;71.42;99047.59;5221917;28;20049;-72
2022/11/25 03:27:11;;;;;;;17.02;7.90;;;;;;;3.36;72.22;99052.47;5219865;28;20045;-71
2022/11/25 03:30:03;;;;;;;16.17;7.55;;;;;;;3.22;72.81;99043.69;5207700;28;20049;-72
2022/11/25 03:32:54;;;;;;;30.50;7.68;;;;;;;3.27;72.36;99049.47;5221365;28;20059;-73
2022/11/25 03:35:46;;;;;;;13.52;7.30;;;;;;;3.19;72.98;99028.16;5206119;28;20065;-72
2022/11/25 03:38:37;;;;;;;19.60;7.85;;;;;;;3.28;72.97;99037.25;5215015;28;20053;-71
2022/11/25 03:41:27;;;;;;;16.25;7.25;;;;;;;3.34;72.34;99033.38;5205678;28;20132;-72
2022/11/25 03:44:17;;;;;;;17.30;7.68;;;;;;;3.36;71.98;99039.38;5218415;28;20052;-71
2022/11/25 03:47:08;;;;;;;17.55;6.63;;;;;;;3.48;72.66;99035.97;5205417;28;20048;-71
2022/11/25 03:49:58;;;;;;;16.33;7.45;;;;;;;3.58;72.24;99037.06;5221177;28;20060;-72
2022/11/25 03:52:50;;;;;;;17.88;7.30;;;;;;;3.59;72.65;99020.38;5222797;28;20064;-71
2022/11/25 03:55:42;;;;;;;17.88;7.43;;;;;;;3.73;72.75;99033.44;5226719;28;20047;-72
2022/11/25 03:58:32;;;;;;;16.88;6.75;;;;;;;3.92;72.94;99022.56;5226796;28;20072;-72
2022/11/25 04:01:22;;;;;;;12.35;6.53;;;;;;;4.05;73.44;99033.09;5205444;28;20107;-72
2022/11/25 04:04:13;;;;;;;15.10;6.90;;;;;;;4.05;73.28;99035.72;5222784;28;20461;-71
2022/11/25 04:07:03;;;;;;;23.63;6.80;;;;;;;3.92;73.90;99040.09;5206697;28;20191;-72
2022/11/25 04:09:53;;;;;;;13.20;6.55;;;;;;;4.17;73.10;99037.56;5219792;28;20747;-72
2022/11/25 04:12:51;;;;;;;18.70;7.55;;;;;;;4.34;72.64;99035.53;5222753;28;20052;-73
2022/11/25 04:15:47;;;;;;;15.88;6.97;;;;;;;4.36;72.79;99031.03;5224967;28;20110;-72
2022/11/25 04:18:39;;;;;;;22.87;7.90;;;;;;;4.17;73.23;99023.56;5208763;28;20133;-73
2022/11/25 04:21:29;;;;;;;19.17;7.53;;;;;;;4.27;72.66;99029.88;5213501;28;20133;-72
2022/11/25 04:24:21;;;;;;;25.80;7.97;;;;;;;4.30;73.33;99019.16;5222518;28;20076;-71
2022/11/25 04:27:11;;;;;;;23.27;8.20;;;;;;;4.13;72.45;99022.94;5211075;28;20052;-72
2022/11/25 04:30:04;;;;;;;22.15;7.53;;;;;;;4.29;73.69;99017.50;5236979;28;20558;-72
2022/11/25 04:32:58;;;;;;;21.63;8.48;;;;;;;4.14;73.37;98998.38;5228974;28;20052;-73
2022/11/25 04:35:48;;;;;;;15.43;7.50;;;;;;;4.43;73.00;99022.63;5224585;28;20052;-72
2022/11/25 04:38:39;;;;;;;19.88;7.07;;;;;;;4.50;73.10;99027.47;5196570;28;20059;-72
2022/11/25 04:41:30;;;;;;;23.15;7.78;;;;;;;4.41;72.67;99035.06;5224260;28;20053;-72
2022/11/25 04:44:20;;;;;;;22.50;7.88;;;;;;;4.29;73.17;99008.78;5209968;28;20140;-72
2022/11/25 04:47:11;;;;;;;15.85;6.82;;;;;;;4.42;73.17;99015.72;5224354;28;20048;-72
2022/11/25 04:50:02;;;;;;;24.33;6.97;;;;;;;4.45;73.29;99017.31;5208701;28;20060;-72
2022/11/25 04:52:55;;;;;;;16.10;7.10;;;;;;;4.65;71.71;99015.94;5223960;28;20103;-73
2022/11/25 04:55:46;;;;;;;19.48;7.60;;;;;;;4.57;72.55;99023.47;5224087;28;20060;-73
2022/11/25 05:01:46;;;;;;;14.35;6.25;;;;;;;4.79;72.02;99022.84;5203711;28;20060;-72
2022/11/25 05:05:06;;;;;;;22.10;7.25;;;;;;;4.64;72.00;99030.03;5200452;28;20060;-73
2022/11/25 05:07:57;;;;;;;13.25;6.10;;;;;;;4.54;72.51;99035.06;5204630;28;20060;-71
2022/11/25 05:10:47;;;;;;;19.38;6.85;;;;;;;4.62;73.01;99032.75;5221769;28;20477;-72
2022/11/25 05:13:38;;;;;;;20.77;7.13;;;;;;;4.71;72.53;99040.00;5214263;28;20053;-73
2022/11/25 05:16:29;;;;;;;14.52;6.93;;;;;;;4.65;72.98;99047.44;5209418;28;20056;-70
2022/11/25 05:19:19;;;;;;;25.77;8.88;;;;;;;4.64;73.69;99045.78;5215090;28;20076;-72
2022/11/25 05:22:12;;;;;;;26.02;7.95;;;;;;;4.23;73.33;99033.66;5210763;28;20095;-73
2022/11/25 05:25:04;;;;;;;22.73;8.77;;;;;;;3.85;75.95;99034.41;5220637;28;20194;-73
2022/11/25 05:27:59;;;;;;;23.10;9.48;;;;;;;3.66;76.21;99019.03;5222599;28;20056;-74
2022/11/25 05:30:50;;;;;;;20.17;8.82;;;;;;;3.95;75.11;99026.78;5205504;28;20053;-70
2022/11/25 05:33:40;;;;;;;21.23;8.82;;;;;;;4.04;74.46;99004.34;5213791;28;20392;-73
2022/11/25 05:36:32;;;;;;;22.77;9.25;;;;;;;4.12;75.15;99041.41;5229490;28;20107;-72
2022/11/25 05:39:23;;;;;;;20.13;8.20;;;;;;;4.20;74.97;99046.97;5214206;28;20060;-70
2022/11/25 05:42:37;;;;;;;;;;;;;;;4.53;74.06;99056.16;5218515;28;20510;-71
2022/11/25 05:45:29;;;;;;;19.73;9.00;;;;;;;4.65;72.75;99058.78;5220325;28;19931;-72
2022/11/25 05:48:20;;;;;;;22.98;8.82;;;;;;;4.67;71.73;99062.16;5219611;28;20050;-73
2022/11/25 05:51:11;;;;;;;17.70;8.02;;;;;;;4.41;71.74;99063.09;5202630;28;20049;-73
2022/11/25 05:54:02;;;;;;;17.33;7.75;;;;;;;4.33;72.06;99078.50;5203978;28;20053;-74
2022/11/25 05:56:54;;;;;;;17.27;7.68;;;;;;;4.45;72.81;99080.31;5218870;28;20171;-70
2022/11/25 06:00:01;;;;;;;18.88;7.30;;;;;;;4.44;72.13;99078.66;5211851;28;20135;-72
2022/11/25 06:03:04;;;;;;;19.70;7.60;;;;;;;4.58;71.06;99077.72;5212146;28;20514;-73
2022/11/25 06:05:55;;;;;;;20.92;7.47;;;;;;;4.50;71.64;99074.75;5222068;28;20059;-74
2022/11/25 06:08:45;;;;;;;14.40;7.47;;;;;;;4.32;71.67;99077.66;5216690;28;20080;-69
2022/11/25 06:11:36;;;;;;;14.85;6.18;;;;;;;4.26;71.48;99098.22;5201165;28;20075;-73
2022/11/25 06:14:26;;;;;;;14.70;6.15;;;;;;;4.01;71.40;99068.38;5205354;28;20067;-71
2022/11/25 06:17:17;;;;;;;18.02;7.35;;;;;;;4.03;72.72;99094.50;5202552;28;20049;-71
2022/11/25 06:20:18;;;;;;;16.42;6.82;;;;;;;4.22;71.63;99087.09;5220262;28;20423;-72
2022/11/25 06:23:09;;;;;;;14.10;6.03;;;;;;;4.11;72.11;99089.59;5219865;28;20103;-71
2022/11/25 06:26:11;;;;;;;14.73;6.07;;;;;;;4.12;71.33;99075.53;5212619;28;20140;-70
2022/11/25 06:29:02;;;;;;;10.38;5.35;;;;;;;3.94;71.64;99078.41;5214911;28;21033;-71
2022/11/25 06:31:52;;;;;;;14.38;6.57;;;;;;;3.94;71.72;99088.91;5212211;28;20524;-72
2022/11/25 06:35:05;;;;;;;14.20;5.80;;;;;;;3.82;72.58;99094.94;5208173;28;20064;-71
2022/11/25 06:38:03;;;;;;;14.23;5.88;;;;;;;3.91;71.90;99091.72;5220321;28;20059;-74
2022/11/25 06:40:53;;;;;;;11.98;5.80;;;;;;;3.92;71.95;99103.91;5217728;28;20045;-71
2022/11/25 06:43:50;;;;;;;12.13;5.65;;;;;;;3.80;71.31;99094.19;5215547;28;20053;-72
2022/11/25 06:46:39;;;;;;;13.98;5.38;;;;;;;3.70;71.32;99091.31;5209465;28;20099;-72
2022/11/25 06:49:30;;;;;;;13.70;5.35;;;;;;;3.69;71.12;99094.06;5215033;28;20698;-71
2022/11/25 06:52:20;;;;;;;10.35;5.00;;;;;;;3.58;70.71;99092.13;5220055;28;20053;-71
2022/11/25 06:55:11;;;;;;;15.90;5.82;;;;;;;3.33;72.01;99095.44;5213143;28;20186;-70
2022/11/25 06:58:00;;;;;;;10.57;5.20;;;;;;;3.49;71.23;99113.66;5204876;28;20146;-71
2022/11/25 07:01:14;;;;;;;15.25;6.38;;;;;;;3.56;72.19;99120.19;5206382;28;20136;-70
2022/11/25 07:04:05;;;;;;;12.68;6.28;;;;;;;3.64;71.97;99117.94;5218340;28;20050;-71
2022/11/25 07:06:55;;;;;;;17.17;6.30;;;;;;;3.76;72.27;99122.41;5217543;28;20050;-71
2022/11/25 07:09:46;;;;;;;22.10;7.63;;;;;;;3.78;72.48;99108.38;5216090;28;20087;-70
2022/11/25 07:12:36;;;;;;;14.23;7.22;;;;;;;3.80;72.86;99104.69;5218966;28;20057;-73
2022/11/25 07:15:26;;;;;;;15.88;7.80;;;;;;;3.93;71.92;99115.22;5216470;28;20506;-73
2022/11/25 07:18:16;;;;;;;27.50;9.52;;;;;;;4.13;72.37;99109.53;5225379;28;20190;-70
2022/11/25 07:21:14;;;;;;;24.45;9.48;;;;;;;4.26;72.95;99114.81;5227377;28;20057;-71
2022/11/25 07:24:06;;;;;;;21.73;8.90;;;;;;;4.29;72.93;99124.28;5227513;28;20509;-70
2022/11/25 07:26:56;;;;;;;22.85;9.65;;;;;;;4.37;71.87;99132.47;5226455;28;20084;-71
2022/11/25 07:29:48;;;;;;;20.15;9.13;;;;;;;4.38;72.32;99134.19;5239582;28;20063;-70
2022/11/25 07:32:58;;;;;;;21.73;8.32;;;;;;;4.46;72.39;99137.13;5227147;28;20494;-71
2022/11/25 07:35:48;;;;;;;22.30;9.38;;;;;;;4.38;72.49;99097.44;5226837;28;20053;-72
2022/11/25 07:38:39;;;;;;;17.05;8.65;;;;;;;4.60;72.92;99136.19;5206374;28;20056;-71
2022/11/25 07:41:36;;;;;;;22.30;8.45;;;;;;;4.77;71.95;99149.06;5205114;28;20903;-71
2022/11/25 07:44:26;;;;;;;18.75;7.97;;;;;;;4.86;72.17;99158.09;5206572;28;20057;-71
2022/11/25 07:47:42;;;;;;;22.80;7.82;;;;;;;4.70;72.28;99143.38;5205363;28;20537;-71
2022/11/25 07:50:32;;;;;;;24.95;8.75;;;;;;;4.99;72.12;99160.72;5211104;28;20097;-72
2022/11/25 07:53:22;;;;;;;20.60;9.05;;;;;;;5.08;71.62;99162.75;5206336;28;20057;-70
2022/11/25 07:56:13;;;;;;;21.67;8.95;;;;;;;5.10;72.02;99159.06;5208364;28;20522;-72
2022/11/25 07:59:05;;;;;;;24.08;11.32;;;;;;;5.16;72.21;99153.38;5225213;28;20071;-70
2022/11/25 08:01:55;;;;;;;26.27;9.93;;;;;;;5.29;72.36;99153.34;5226517;28;20426;-71
2022/11/25 08:04:45;;;;;;;26.83;8.93;;;;;;;5.44;71.59;99171.66;5226495;28;20109;-71
2022/11/25 08:07:35;;;;;;;17.85;8.55;;;;;;;5.34;71.21;99174.09;5212403;28;20053;-69
2022/11/25 08:10:26;;;;;;;21.38;8.55;;;;;;;5.29;71.84;99187.53;5213509;28;20084;-71
2022/11/25 08:13:17;;;;;;;23.23;10.77;;;;;;;5.19;72.99;99187.31;5226283;28;20057;-70
2022/11/25 08:16:08;;;;;;;27.90;9.75;;;;;;;5.24;72.02;99197.53;5223985;28;20123;-72
2022/11/25 08:19:00;;;;;;;27.17;11.15;;;;;;;5.18;72.77;99195.34;5225879;28;20178;-70
2022/11/25 08:21:50;;;;;;;29.30;11.85;;;;;;;5.35;73.19;99183.66;5226004;28;20063;-71
2022/11/25 08:24:40;;;;;;;87.18;37.45;;;;;;;5.52;71.89;99187.75;5225054;28;20522;-71
2022/11/25 08:27:30;;;;;;;107.40;54.42;;;;;;;5.53;72.02;99177.13;5209045;28;20047;-71
2022/11/25 08:30:23;;;;;;;36.10;15.82;;;;;;;5.44;71.94;99145.38;5225577;28;20059;-70
2022/11/25 08:33:13;;;;;;;17.77;8.38;;;;;;;5.74;72.22;99163.41;5224931;28;20053;-71
2022/11/25 08:36:05;;;;;;;25.48;9.40;;;;;;;5.82;71.51;99158.41;5212314;28;20593;-71
2022/11/25 08:38:57;;;;;;;27.15;13.77;;;;;;;5.91;71.53;99159.56;5236592;22;20041;-73
2022/11/25 08:41:47;;;;;;;24.08;9.88;;;;;;;5.90;72.01;99156.09;5215213;28;20044;-73
2022/11/25 08:44:37;;;;;;;20.95;9.73;;;;;;;5.81;72.28;99154.94;5225246;28;20084;-73
2022/11/25 08:47:27;;;;;;;36.92;15.82;;;;;;;5.98;71.03;99160.84;5203528;28;20080;-73
2022/11/25 08:50:18;;;;;;;25.90;10.77;;;;;;;6.10;71.03;99175.75;5183842;28;20499;-73
2022/11/25 08:53:08;;;;;;;23.35;10.35;;;;;;;5.85;72.41;99181.88;5192908;28;20079;-73
2022/11/25 08:55:58;;;;;;;20.75;10.20;;;;;;;6.08;70.81;99183.75;5187698;28;20176;-73
2022/11/25 08:58:48;;;;;;;21.83;9.57;;;;;;;6.22;70.94;99198.53;5184945;28;20057;-73
2022/11/25 09:01:38;;;;;;;23.38;11.27;;;;;;;6.24;71.77;99203.69;5190161;28;20095;-73
2022/11/25 09:04:28;;;;;;;23.77;11.10;;;;;;;6.14;71.83;99198.25;5204742;28;20518;-73
2022/11/25 09:07:18;;;;;;;23.42;11.13;;;;;;;6.20;70.99;99186.47;5204069;28;20160;-73
2022/11/25 09:10:13;;;;;;;22.50;10.48;;;;;;;6.47;70.99;99189.69;5184701;28;20187;-72
2022/11/25 09:13:04;;;;;;;25.30;10.45;;;;;;;6.78;70.62;99188.25;5184104;28;20507;-73
2022/11/25 09:15:56;;;;;;;23.40;10.02;;;;;;;6.89;70.49;99153.19;5185833;28;20515;-73
2022/11/25 09:18:46;;;;;;;24.73;11.55;;;;;;;7.50;69.75;99195.09;5186960;28;20053;-73
2022/11/25 09:21:43;;;;;;;23.48;11.02;;;;;;;7.69;70.24;99191.88;5212206;28;20158;-73
2022/11/25 09:24:34;;;;;;;25.67;9.45;;;;;;;8.06;69.02;99191.59;5206862;28;20049;-73
2022/11/25 09:27:25;;;;;;;23.77;9.80;;;;;;;8.18;69.12;99201.16;5206798;28;20046;-73
2022/11/25 09:30:15;;;;;;;23.75;9.82;;;;;;;8.32;68.85;99205.34;5183791;28;20079;-73
2022/11/25 09:33:05;;;;;;;20.75;8.70;;;;;;;8.42;68.21;99209.78;5192941;28;20350;-73
2022/11/25 09:35:59;;;;;;;23.23;9.48;;;;;;;8.29;66.96;99195.00;5193951;28;20143;-73
2022/11/25 09:38:50;;;;;;;18.90;8.60;;;;;;;8.42;66.66;99211.56;5190973;28;20053;-74
2022/11/25 09:48:45;;;;;;;28.05;9.55;;;;;;;8.36;66.98;99214.69;5215944;28;20072;-73
2022/11/25 09:51:44;;;;;;;28.05;9.13;;;;;;;8.34;67.64;99220.06;5195221;28;20069;-73
2022/11/25 09:54:37;;;;;;;28.38;9.27;;;;;;;8.41;67.93;99218.66;5206627;28;20060;-73
2022/11/25 09:57:49;;;;;;;21.25;9.20;;;;;;;8.46;67.29;99213.84;5193981;28;20089;-74
2022/11/25 10:00:48;;;;;;;30.98;10.20;;;;;;;8.49;67.46;99206.63;5197226;28;20068;-73
2022/11/25 10:03:41;;;;;;;17.23;8.55;;;;;;;8.54;69.05;99199.16;5200256;28;20135;-73
2022/11/25 10:06:39;;;;;;;21.70;8.67;;;;;;;8.68;68.90;99210.28;5183920;28;20469;-74
2022/11/25 10:09:33;;;;;;;18.70;7.85;;;;;;;8.67;68.22;99203.28;5183326;28;20747;-74
2022/11/25 10:12:29;;;;;;;15.23;7.78;;;;;;;8.78;68.81;99210.38;5202434;28;20461;-74
2022/11/25 10:15:29;;;;;;;15.93;7.28;;;;;;;8.90;69.03;99208.50;5187185;28;20050;-74
2022/11/25 10:18:20;;;;;;;19.05;7.45;;;;;;;8.94;68.34;99210.78;5180801;28;20141;-74
2022/11/25 10:21:13;;;;;;;18.17;8.07;;;;;;;9.05;68.60;99211.69;5180934;28;20058;-74
2022/11/25 10:24:04;;;;;;;17.38;7.88;;;;;;;9.16;69.23;99190.44;5187220;28;20068;-74
2022/11/25 10:27:00;;;;;;;20.50;7.82;;;;;;;9.52;67.57;99209.44;5202856;28;20128;-74
2022/11/25 10:30:03;;;;;;;25.80;7.82;;;;;;;9.39;67.46;99213.13;5202494;28;20075;-74
2022/11/25 10:33:15;;;;;;;20.77;7.70;;;;;;;9.14;66.94;99179.16;5199832;28;20108;-73
2022/11/25 10:36:12;;;;;;;15.75;8.45;;;;;;;9.30;66.69;99205.97;5181430;28;20061;-74
2022/11/25 10:39:23;;;;;;;17.15;7.22;;;;;;;9.36;67.38;99215.19;5181441;28;20121;-74
2022/11/25 10:42:19;;;;;;;16.02;7.03;;;;;;;9.39;68.38;99214.94;5181501;28;20526;-73
2022/11/25 10:45:10;;;;;;;18.25;7.97;;;;;;;9.28;67.40;99215.84;5179876;28;20066;-73
2022/11/25 10:48:13;;;;;;;16.83;7.68;;;;;;;9.37;67.41;99216.88;5180472;28;20050;-74
2022/11/25 10:51:29;;;;;;;20.70;7.95;;;;;;;9.42;68.59;99222.63;5180235;28;20425;-73
2022/11/25 10:54:21;;;;;;;14.93;7.53;;;;;;;9.52;68.69;99230.63;5200006;28;20419;-74
2022/11/25 10:57:28;;;;;;;21.73;8.27;;;;;;;9.44;68.67;99233.94;5192532;28;20516;-76
2022/11/25 11:00:28;;;;;;;19.50;9.90;;;;;;;9.47;68.47;99244.25;5191924;28;20052;-74
2022/11/25 11:03:25;;;;;;;22.33;8.73;;;;;;;9.46;68.54;99231.13;5190937;28;20175;-74
2022/11/25 11:06:31;;;;;;;20.67;9.35;;;;;;;9.61;67.72;99233.31;5190983;28;20057;-72
2022/11/25 11:09:41;;;;;;;19.98;9.02;;;;;;;9.54;68.27;99255.16;5198833;28;20233;-74
2022/11/25 11:12:31;;;;;;;20.60;8.68;;;;;;;9.46;69.71;99255.78;5194089;28;20083;-74
2022/11/25 11:15:25;;;;;;;15.20;8.10;;;;;;;9.47;69.42;99260.13;5181974;28;20054;-75
2022/11/25 11:18:27;;;;;;;17.52;8.80;;;;;;;9.39;68.44;99270.50;5185162;28;20176;-77
2022/11/25 11:21:36;;;;;;;19.80;8.60;;;;;;;8.88;70.15;99268.63;5201190;28;20056;-75
2022/11/25 11:24:36;;;;;;;20.20;9.02;;;;;;;8.88;69.56;99280.03;5202820;28;20061;-75
2022/11/25 11:27:27;;;;;;;19.88;9.00;;;;;;;8.93;70.24;99288.41;5201241;28;20381;-74
2022/11/25 11:30:20;;;;;;;18.23;8.93;;;;;;;9.08;69.05;99272.25;5182180;28;20052;-76
2022/11/25 11:33:33;;;;;;;23.38;10.50;;;;;;;9.23;68.84;99288.66;5193431;28;20522;-75
2022/11/25 11:36:30;;;;;;;31.55;12.02;;;;;;;8.87;70.44;99253.69;5181627;28;20582;-75
2022/11/25 11:39:46;;;;;;;23.10;10.18;;;;;;;9.07;69.61;99289.94;5187085;28;20691;-74
2022/11/25 11:42:57;;;;;;;20.02;9.95;;;;;;;9.09;70.14;99287.16;5200365;28;20052;-75
2022/11/25 11:46:04;;;;;;;22.20;10.10;;;;;;;9.22;69.97;99295.75;5205208;28;20067;-75
2022/11/25 11:49:04;;;;;;;18.98;9.40;;;;;;;9.19;70.23;99293.34;5192078;28;20129;-75
2022/11/25 11:52:17;;;;;;;21.85;10.25;;;;;;;9.33;69.83;99285.09;5196569;28;20068;-75
2022/11/25 11:55:24;;;;;;;22.63;10.40;;;;;;;9.47;69.57;99296.31;5196396;28;20064;-75
2022/11/25 11:58:36;;;;;;;24.58;10.20;;;;;;;9.32;70.64;99288.72;5197126;28;20049;-75
2022/11/25 12:01:48;;;;;;;20.52;10.50;;;;;;;9.39;70.33;99292.53;5194588;28;20558;-75
2022/11/25 12:04:51;;;;;;;23.85;11.48;;;;;;;9.37;70.57;99301.56;5197811;28;20053;-75
2022/11/25 12:08:03;;;;;;;25.52;11.93;;;;;;;9.48;70.36;99287.44;5196670;28;20041;-75
2022/11/25 12:11:09;;;;;;;23.13;9.15;;;;;;;9.40;71.36;99299.50;5198783;28;20536;-74
2022/11/25 12:14:14;;;;;;;17.40;9.00;;;;;;;9.39;70.94;99310.22;5207810;28;20053;-73
2022/11/25 12:17:32;;;;;;;19.20;9.88;;;;;;;9.48;71.55;99300.66;5203820;28;20484;-74
2022/11/25 12:20:37;;;;;;;24.67;9.90;;;;;;;9.16;72.20;99289.16;5193924;28;20096;-73
2022/11/25 12:23:49;;;;;;;21.13;11.13;;;;;;;9.38;71.96;99313.84;5196880;28;20431;-73
2022/11/25 12:26:54;;;;;;;24.52;12.40;;;;;;;9.51;71.51;99309.19;5195548;28;20048;-74
2022/11/25 12:30:06;;;;;;;21.58;10.63;;;;;;;9.40;71.48;99314.53;5194123;28;20187;-73
2022/11/25 12:33:05;;;;;;;27.13;10.95;;;;;;;9.41;71.69;99319.72;5193670;28;20061;-73
2022/11/25 12:36:02;;;;;;;21.10;10.40;;;;;;;9.25;72.42;99321.94;5195249;28;20127;-73
2022/11/25 12:39:02;;;;;;;22.50;10.48;;;;;;;9.14;72.12;99295.56;5196099;28;20052;-73
2022/11/25 12:42:01;;;;;;;23.73;11.40;;;;;;;9.33;71.97;99331.88;5195168;28;20064;-74
2022/11/25 12:45:24;;;;;;;27.80;13.27;;;;;;;9.35;71.94;99333.44;5195248;28;20099;-73
2022/11/25 12:48:15;;;;;;;21.38;10.63;;;;;;;9.41;71.39;99335.59;5179806;28;20061;-72
2022/11/25 12:51:39;;;;;;;21.33;11.85;;;;;;;9.30;71.75;99330.34;5194647;28;20054;-73
2022/11/25 12:54:48;;;;;;;24.52;12.23;;;;;;;9.36;72.20;99347.50;5196133;28;20061;-73
2022/11/25 12:58:01;;;;;;;24.10;12.82;;;;;;;9.35;72.21;99336.09;5201015;28;20055;-73
2022/11/25 13:01:28;;;;;;;26.05;12.68;;;;;;;9.54;72.31;99345.16;5192029;28;20478;-72
2022/11/25 13:04:43;;;;;;;20.50;11.77;;;;;;;9.62;71.30;99358.56;5196857;28;20140;-73
2022/11/25 13:07:47;;;;;;;21.85;11.82;;;;;;;9.55;71.47;99358.25;5194420;28;20622;-73
2022/11/25 13:10:55;;;;;;;25.30;11.73;;;;;;;9.50;71.72;99365.72;5194095;28;20203;-74
2022/11/25 13:13:58;;;;;;;30.90;11.02;;;;;;;9.51;72.56;99363.94;5194760;28;20681;-73
2022/11/25 13:16:49;;;;;;;23.00;10.80;;;;;;;9.35;71.75;99333.44;5195510;28;20053;-74
2022/11/25 13:19:40;;;;;;;25.25;10.93;;;;;;;9.64;71.79;99368.09;5190884;28;20730;-74
2022/11/25 13:22:30;;;;;;;21.05;9.95;;;;;;;9.64;71.07;99372.53;5195510;28;20119;-72
2022/11/25 13:25:24;;;;;;;22.23;8.88;;;;;;;9.67;71.75;99377.59;5194362;28;20048;-73
2022/11/25 13:28:29;;;;;;;18.63;8.48;;;;;;;9.75;72.14;99380.41;5191940;28;20092;-73
2022/11/25 13:31:32;;;;;;;;;;;;;;;9.77;71.93;99377.66;5191498;28;20064;-73
2022/11/25 13:34:32;;;;;;;21.55;8.00;;;;;;;9.85;72.36;99391.06;5193959;28;19924;-73
2022/11/25 13:37:38;;;;;;;18.15;8.43;;;;;;;10.06;71.73;99391.03;5192926;28;20054;-73
2022/11/25 13:40:36;;;;;;;22.77;9.38;;;;;;;10.11;71.27;99386.22;5192188;28;20143;-72
2022/11/25 13:43:27;;;;;;;21.98;9.25;;;;;;;10.02;71.03;99384.34;5191773;28;20057;-73
2022/11/25 13:46:36;;;;;;;28.35;9.98;;;;;;;9.98;71.14;99386.41;5181982;28;20111;-73
2022/11/25 13:49:33;;;;;;;19.13;8.40;;;;;;;9.95;71.35;99391.13;5194476;28;20467;-73
2022/11/25 13:52:41;;;;;;;14.27;7.55;;;;;;;9.94;70.89;99390.28;5202451;28;20072;-73
2022/11/25 13:55:40;;;;;;;16.35;7.00;;;;;;;9.96;71.38;99390.16;5203307;28;20046;-72
2022/11/25 13:58:34;;;;;;;16.60;6.25;;;;;;;10.03;71.22;99394.81;5199038;28;20061;-71